KVSF/VSF METAR and TAF weather

Enter ICAO airport designator
Station Type Date Time Source
KVSF METAR 2021/10/24 20:54 UTC NOAA

KVSF 242054Z AUTO 32004KT 10SM CLR 13/M02 A3011 RMK AO2 SLP201 T01281022 53002


Station Type Date Time Source
KVSF Decoded METAR 2021/10/24 20:54 UTC NOAA

HARTNESS STATE AIRPORT, VT, United States (KVSF) 43-21N 72-31W 175M
Oct 24, 2021 - 04:54 PM EDT / 2021.10.24 2054 UTC
Wind: from the NW (320 degrees) at 5 MPH (4 KT):0
Visibility: 10 mile(s):0
Sky conditions: clear
Temperature: 55.0 F (12.8 C)
Dew Point: 28.0 F (-2.2 C)
Relative Humidity: 35%
Pressure (altimeter): 30.11 in. Hg (1019 hPa)
Pressure tendency: 0.01 inches (0.2 hPa) higher than three hours ago
ob: KVSF 242054Z AUTO 32004KT 10SM CLR 13/M02 A3011 RMK AO2 SLP201 T01281022 53002
cycle: 21

Station Type Date Time Source
KVSF TAF UTC NOAA

Error!

Example: see airport list